createdAt,value
2022-11-30T00:01:41.183Z,10.2
2022-11-30T00:06:47.391Z,10.2
2022-11-30T00:11:53.591Z,10.2
2022-11-30T00:16:59.842Z,10.2
2022-11-30T00:22:06.037Z,10.2
2022-11-30T00:27:12.222Z,10.2
2022-11-30T00:32:18.428Z,10.2
2022-11-30T00:37:24.638Z,10.2
2022-11-30T00:42:30.855Z,10.2
2022-11-30T00:47:37.055Z,10.2
2022-11-30T00:52:43.264Z,10.2
2022-11-30T00:57:49.463Z,10.2
2022-11-30T01:02:55.679Z,10.2
2022-11-30T01:08:01.872Z,10.2
2022-11-30T01:13:08.091Z,10.2
2022-11-30T01:18:14.300Z,10.1
2022-11-30T01:23:20.507Z,10.1
2022-11-30T01:28:26.719Z,10.1
2022-11-30T01:33:32.934Z,10.1
2022-11-30T01:38:39.128Z,10.1
2022-11-30T01:43:45.345Z,10.1
2022-11-30T01:48:51.542Z,10.1
2022-11-30T01:53:57.752Z,10.0
2022-11-30T01:59:03.960Z,10.0
2022-11-30T02:04:10.171Z,9.9
2022-11-30T02:09:16.374Z,9.9
2022-11-30T02:14:22.599Z,9.9
2022-11-30T02:19:28.789Z,9.9
2022-11-30T02:24:35.003Z,9.9
2022-11-30T02:29:41.212Z,9.9
2022-11-30T02:34:47.823Z,9.8
2022-11-30T02:39:53.618Z,9.8
2022-11-30T02:44:59.827Z,9.8
2022-11-30T02:50:06.055Z,9.8
2022-11-30T02:55:12.241Z,9.8
2022-11-30T03:00:18.458Z,9.8
2022-11-30T03:05:24.661Z,9.8
2022-11-30T03:10:30.866Z,9.8
2022-11-30T03:15:37.104Z,9.7
2022-11-30T03:20:43.292Z,9.7
2022-11-30T03:25:49.591Z,9.7
2022-11-30T03:30:55.744Z,9.7
2022-11-30T03:36:01.921Z,9.6
2022-11-30T03:41:08.113Z,9.6
2022-11-30T03:46:14.370Z,9.6
2022-11-30T03:51:20.596Z,9.6
2022-11-30T03:56:26.736Z,9.6
2022-11-30T04:01:32.967Z,9.6
2022-11-30T04:06:39.147Z,9.5
2022-11-30T04:11:45.360Z,9.5
2022-11-30T04:16:51.570Z,9.5
2022-11-30T04:21:57.767Z,9.5
2022-11-30T04:27:03.981Z,9.5
2022-11-30T04:32:10.190Z,9.5
2022-11-30T04:37:16.399Z,9.4
2022-11-30T04:42:22.776Z,9.4
2022-11-30T04:47:28.810Z,9.4
2022-11-30T04:52:35.023Z,9.4
2022-11-30T04:57:41.232Z,9.3
2022-11-30T05:02:52.465Z,9.3
2022-11-30T05:07:53.662Z,9.3
2022-11-30T05:12:59.880Z,9.3
2022-11-30T05:18:06.061Z,9.2
2022-11-30T05:23:11.282Z,9.2
2022-11-30T05:28:17.483Z,9.1
2022-11-30T05:33:23.694Z,9.1
2022-11-30T05:38:29.905Z,9.0
2022-11-30T05:43:36.106Z,8.9
2022-11-30T05:48:42.320Z,8.8
2022-11-30T05:53:47.554Z,8.7
2022-11-30T05:58:53.757Z,8.6
2022-11-30T06:04:02.547Z,8.5
2022-11-30T06:09:06.174Z,8.4
2022-11-30T06:14:12.374Z,8.3
2022-11-30T06:19:18.682Z,8.3
2022-11-30T06:24:24.792Z,8.2
2022-11-30T06:29:30.997Z,8.2
2022-11-30T06:34:37.206Z,8.1
2022-11-30T06:40:05.493Z,8.1
2022-11-30T06:44:49.881Z,8.0
2022-11-30T06:49:55.831Z,7.9
2022-11-30T06:55:02.037Z,7.9
2022-11-30T07:00:08.425Z,7.9
2022-11-30T07:05:14.450Z,7.8
2022-11-30T07:10:20.658Z,7.8
2022-11-30T07:15:26.866Z,7.8
2022-11-30T07:20:33.075Z,7.7
2022-11-30T07:25:39.285Z,7.7
2022-11-30T07:30:45.502Z,7.7
2022-11-30T07:35:51.699Z,7.6
2022-11-30T07:40:57.902Z,7.6
2022-11-30T07:46:04.191Z,7.5
2022-11-30T07:51:10.320Z,7.5
2022-11-30T07:56:16.530Z,7.5
2022-11-30T08:01:22.931Z,7.4
2022-11-30T08:06:28.934Z,7.4
2022-11-30T08:11:35.144Z,7.4
2022-11-30T08:16:41.394Z,7.4
2022-11-30T08:21:47.563Z,7.4
2022-11-30T08:26:53.786Z,7.4
2022-11-30T08:31:59.976Z,7.4
2022-11-30T08:37:06.187Z,7.4
2022-11-30T08:42:12.397Z,7.5
2022-11-30T08:47:18.647Z,7.5
2022-11-30T08:52:24.818Z,7.6
2022-11-30T08:57:31.012Z,7.7
2022-11-30T09:02:37.308Z,7.8
2022-11-30T09:07:43.494Z,7.9
2022-11-30T09:12:49.657Z,8.0
2022-11-30T09:17:55.930Z,8.0
2022-11-30T09:23:02.053Z,8.1
2022-11-30T09:28:12.171Z,8.2
2022-11-30T09:33:14.471Z,8.2
2022-11-30T09:38:20.669Z,8.3
2022-11-30T09:43:26.883Z,8.4
2022-11-30T09:48:33.086Z,8.5
2022-11-30T09:53:39.325Z,8.6
2022-11-30T09:58:45.504Z,8.6
2022-11-30T10:03:51.724Z,8.7
2022-11-30T10:08:57.924Z,8.7
2022-11-30T10:14:04.125Z,8.8
2022-11-30T10:19:10.335Z,8.8
2022-11-30T10:24:16.548Z,8.9
2022-11-30T10:29:22.756Z,9.0
2022-11-30T10:34:28.964Z,9.0
2022-11-30T10:39:35.185Z,9.1
2022-11-30T10:44:41.371Z,9.2
2022-11-30T10:49:47.595Z,9.2
2022-11-30T10:54:54.624Z,9.3
2022-11-30T10:59:59.991Z,9.4
2022-11-30T11:05:06.214Z,9.4
2022-11-30T11:10:12.412Z,9.5
2022-11-30T11:15:18.622Z,9.6
2022-11-30T11:20:24.827Z,9.6
2022-11-30T11:25:30.051Z,9.7
2022-11-30T11:30:36.258Z,9.7
2022-11-30T11:35:42.544Z,9.8
2022-11-30T11:40:48.669Z,9.8
2022-11-30T11:45:54.885Z,9.9
2022-11-30T11:51:08.255Z,10.0
2022-11-30T11:56:07.298Z,10.1
2022-11-30T12:01:38.531Z,10.3
2022-11-30T12:06:19.714Z,10.4
2022-11-30T12:11:25.995Z,10.4
2022-11-30T12:16:32.187Z,10.5
2022-11-30T12:21:38.334Z,10.5
2022-11-30T12:26:44.539Z,10.5
2022-11-30T12:31:50.751Z,10.6
2022-11-30T12:36:56.960Z,10.7
2022-11-30T12:42:03.168Z,10.8
2022-11-30T12:47:09.388Z,10.9
2022-11-30T12:52:15.623Z,10.9
2022-11-30T12:57:21.781Z,10.9
2022-11-30T13:02:28.063Z,10.9
2022-11-30T13:07:34.212Z,10.9
2022-11-30T13:12:40.416Z,10.9
2022-11-30T13:17:46.628Z,10.9
2022-11-30T13:22:52.830Z,10.9
2022-11-30T13:27:59.045Z,10.9
2022-11-30T13:33:05.245Z,10.8
2022-11-30T13:38:35.761Z,10.8
2022-11-30T13:43:17.657Z,10.8
2022-11-30T13:48:23.880Z,10.8
2022-11-30T13:53:30.098Z,10.7
2022-11-30T13:58:36.276Z,10.7
2022-11-30T14:08:48.704Z,10.7
2022-11-30T14:13:54.921Z,10.7
2022-11-30T14:19:01.119Z,10.6
2022-11-30T14:24:07.326Z,10.6
2022-11-30T14:29:13.548Z,10.5
2022-11-30T14:34:19.738Z,10.5
2022-11-30T14:39:25.950Z,10.4
2022-11-30T14:44:32.179Z,10.4
2022-11-30T14:49:38.362Z,10.3
2022-11-30T14:54:44.574Z,10.3
2022-11-30T14:59:51.084Z,10.3
2022-11-30T15:04:56.985Z,10.2
2022-11-30T15:10:03.192Z,10.2
2022-11-30T15:15:09.403Z,10.2
2022-11-30T15:20:15.607Z,10.1
2022-11-30T15:25:21.818Z,10.1
2022-11-30T15:30:28.026Z,10.1
2022-11-30T15:35:57.044Z,10.1
2022-11-30T15:40:40.460Z,10.0
2022-11-30T15:45:46.765Z,10.0
2022-11-30T15:50:52.868Z,10.0
2022-11-30T15:55:59.062Z,9.9
2022-11-30T16:01:05.386Z,9.9
2022-11-30T16:06:11.481Z,9.9
2022-11-30T16:11:17.685Z,9.9
2022-11-30T16:16:24.023Z,9.9
2022-11-30T16:21:30.102Z,9.8
2022-11-30T16:26:50.429Z,9.8
2022-11-30T16:31:42.603Z,9.8
2022-11-30T16:36:48.723Z,9.8
2022-11-30T16:41:54.923Z,9.8
2022-11-30T16:47:01.158Z,9.8
2022-11-30T16:52:07.345Z,9.8
2022-11-30T16:57:12.566Z,9.7
2022-11-30T17:02:18.943Z,9.7
2022-11-30T17:07:25.049Z,9.7
2022-11-30T17:12:31.188Z,9.7
2022-11-30T17:17:37.398Z,9.7
2022-11-30T17:22:43.608Z,9.7
2022-11-30T17:27:49.816Z,9.7
2022-11-30T17:32:56.128Z,9.7
2022-11-30T17:38:02.233Z,9.7
2022-11-30T17:43:08.438Z,9.7
2022-11-30T17:48:14.639Z,9.7
2022-11-30T17:53:20.844Z,9.7
2022-11-30T17:58:32.501Z,9.6
2022-11-30T18:03:33.269Z,9.6
2022-11-30T18:08:39.475Z,9.6
2022-11-30T18:13:45.684Z,9.6
2022-11-30T18:18:51.888Z,9.5
2022-11-30T18:23:58.116Z,9.5
2022-11-30T18:29:04.301Z,9.5
2022-11-30T18:34:10.513Z,9.4
2022-11-30T18:39:16.725Z,9.4
2022-11-30T18:44:22.923Z,9.4
2022-11-30T18:49:29.133Z,9.4
2022-11-30T18:54:35.340Z,9.4
2022-11-30T18:59:41.551Z,9.4
2022-11-30T19:04:48.079Z,9.3
2022-11-30T19:09:53.962Z,9.3
2022-11-30T19:15:00.169Z,9.3
2022-11-30T19:20:06.428Z,9.3
2022-11-30T19:25:15.393Z,9.3
2022-11-30T19:30:18.798Z,9.3
2022-11-30T19:35:25.027Z,9.3
2022-11-30T19:40:31.212Z,9.2
2022-11-30T19:45:37.425Z,9.2
2022-11-30T19:50:43.654Z,9.2
2022-11-30T19:55:49.831Z,9.2
2022-11-30T20:00:56.088Z,9.2
2022-11-30T20:06:02.252Z,9.2
2022-11-30T20:11:08.455Z,9.2
2022-11-30T20:16:14.817Z,9.2
2022-11-30T20:21:20.871Z,9.2
2022-11-30T20:26:27.074Z,9.2
2022-11-30T20:31:33.289Z,9.2
2022-11-30T20:36:39.607Z,9.2
2022-11-30T20:41:45.706Z,9.2
2022-11-30T20:46:51.920Z,9.2
2022-11-30T20:51:58.118Z,9.2
2022-11-30T20:57:04.360Z,9.2
2022-11-30T21:02:10.653Z,9.1
2022-11-30T21:07:16.745Z,9.2
2022-11-30T21:12:22.950Z,9.2
2022-11-30T21:17:29.153Z,9.2
2022-11-30T21:22:35.364Z,9.1
2022-11-30T21:27:41.568Z,9.1
2022-11-30T21:32:47.775Z,9.1
2022-11-30T21:37:53.985Z,9.1
2022-11-30T21:43:00.218Z,9.1
2022-11-30T21:48:06.399Z,9.1
2022-11-30T21:53:12.609Z,9.1
2022-11-30T21:58:18.896Z,9.0
2022-11-30T22:03:25.175Z,9.0
2022-11-30T22:08:31.232Z,9.0
2022-11-30T22:13:37.438Z,9.0
2022-11-30T22:18:43.652Z,9.0
2022-11-30T22:23:49.864Z,9.0
2022-11-30T22:28:55.113Z,9.0
2022-11-30T22:34:01.326Z,9.0
2022-11-30T22:39:07.498Z,9.0
2022-11-30T22:44:13.711Z,9.0
2022-11-30T22:49:21.176Z,9.0
2022-11-30T22:54:26.114Z,9.0
2022-11-30T22:59:31.344Z,8.9
2022-11-30T23:04:37.556Z,8.9
2022-11-30T23:09:43.761Z,8.9
2022-11-30T23:14:49.965Z,8.8
2022-11-30T23:19:56.176Z,8.8
2022-11-30T23:25:02.378Z,8.8
2022-11-30T23:30:08.591Z,8.8
2022-11-30T23:35:14.896Z,8.7
2022-11-30T23:40:21.002Z,8.7
2022-11-30T23:45:27.206Z,8.7
2022-11-30T23:50:33.416Z,8.7
2022-11-30T23:55:39.634Z,8.6
